Terminal Aerodrome Forecast
Issued by NWS Tampa Bay Area, FL

Home | Current Version | Previous Version | Text Only | Print | Product List | Glossary On
Versions: 1 2 3 4 5 6 7 8 9 10 11 12 13 14 15 16 17 18 19 20 21 22 23 24 25 26 27 28 29 30
000
FTUS42 KTBW 282000 AAA
TAFTPA
TAF AMD
KTPA 282057Z 2821/0118 06007KT 5SM BR SCT007 BKN025
      TEMPO 2821/2823 3SM SHRA BKN007 OVC025
     FM010100 05008KT 6SM BR BKN015
     FM010500 05006KT 4SM BR BKN010
     FM011300 08005KT P6SM SCT005 BKN035 BKN100=

USA.gov is the U.S. government's official web portal to all federal, state and local government web resources and services.